Time;durP1;ratioP1;P1;durP2;ratioP2;P2;SDS_P1;SDS_P2;PMS_P1;PMS_P2;Temp;Humidity;BMP_temperature;BMP_pressure;BME280_temperature;BME280_humidity;BME280_pressure;Samples;Min_cycle;Max_cycle;Signal;HPM_P1;HPM_P2
2022/01/18 00:00:50;;;;;;;33.83;5.35;;;;;;;3.25;100.00;103751.31;4895436;29;20048;-65
2022/01/18 00:03:16;;;;;;;42.22;5.13;;;;;;;3.24;100.00;103757.41;4894097;29;20399;-66
2022/01/18 00:05:44;;;;;;;42.13;5.60;;;;;;;3.24;100.00;103749.56;4894769;29;20666;-66
2022/01/18 00:08:09;;;;;;;36.38;5.25;;;;;;;3.23;100.00;103747.78;4895279;29;20040;-65
2022/01/18 00:10:35;;;;;;;27.13;4.07;;;;;;;3.22;100.00;103746.88;4894485;29;20123;-66
2022/01/18 00:20:42;;;;;;;41.78;5.28;;;;;;;3.16;100.00;103735.34;4894165;29;20032;-65
2022/01/18 00:23:09;;;;;;;35.95;5.47;;;;;;;3.15;100.00;103726.56;4890210;29;20323;-66
2022/01/18 00:25:37;;;;;;;31.17;4.55;;;;;;;3.12;100.00;103729.09;4895095;29;20058;-65
2022/01/18 00:28:05;;;;;;;30.48;4.05;;;;;;;3.12;100.00;103732.59;4894937;29;20716;-66
2022/01/18 00:33:38;;;;;;;36.72;4.43;;;;;;;3.12;100.00;103734.34;4894834;29;20048;-65
2022/01/18 00:36:21;;;;;;;36.97;5.03;;;;;;;3.12;100.00;103735.22;4876862;29;20032;-65
2022/01/18 00:38:48;;;;;;;38.90;5.43;;;;;;;3.15;100.00;103741.41;4894493;29;20028;-65
2022/01/18 00:41:15;;;;;;;35.17;4.70;;;;;;;3.17;100.00;103744.97;4894100;29;20035;-65
2022/01/18 00:43:42;;;;;;;30.73;4.43;;;;;;;3.19;100.00;103745.88;4894990;29;20127;-65
2022/01/18 00:46:08;;;;;;;40.45;5.07;;;;;;;3.19;100.00;103744.16;4894428;29;20038;-65
2022/01/18 00:48:35;;;;;;;35.53;5.03;;;;;;;3.19;100.00;103745.88;4893961;29;20032;-65
2022/01/18 00:51:05;;;;;;;38.58;5.35;;;;;;;3.20;100.00;103755.50;4894337;29;20038;-65
2022/01/18 00:53:32;;;;;;;29.40;4.38;;;;;;;3.19;100.00;103744.16;4894137;29;20722;-65
2022/01/18 00:56:17;;;;;;;36.63;4.55;;;;;;;3.19;100.00;103751.13;4893764;29;20039;-66
2022/01/18 00:58:44;;;;;;;31.60;4.18;;;;;;;3.19;100.00;103761.59;4894682;29;20028;-66
2022/01/18 01:01:11;;;;;;;30.00;5.47;;;;;;;3.19;100.00;103751.13;4893925;29;20036;-65
2022/01/18 01:03:37;;;;;;;26.50;4.32;;;;;;;3.18;100.00;103760.72;4878643;29;20051;-66
2022/01/18 01:06:05;;;;;;;32.05;4.72;;;;;;;3.18;100.00;103759.81;4893642;29;20610;-64
2022/01/18 01:08:30;;;;;;;42.15;5.43;;;;;;;3.18;100.00;103776.44;4893964;29;20476;-66
2022/01/18 01:10:56;;;;;;;27.80;4.95;;;;;;;3.18;100.00;103763.34;4893547;29;20055;-66
2022/01/18 01:13:23;;;;;;;34.67;4.55;;;;;;;3.17;100.00;103758.06;4874814;29;20703;-65
2022/01/18 01:34:41;;;;;;;29.88;4.25;;;;;;;3.08;100.00;103750.78;4895056;29;20048;-65
2022/01/18 01:44:46;;;;;;;17.83;4.32;;;;;;;3.02;100.00;103738.38;4893776;29;20095;-65
2022/01/18 01:47:17;;;;;;;37.60;5.07;;;;;;;3.03;100.00;103750.63;4893737;29;20084;-65
2022/01/18 01:49:44;;;;;;;25.35;4.15;;;;;;;3.02;100.00;103738.38;4892642;29;20047;-65
2022/01/18 01:52:11;;;;;;;23.25;3.72;;;;;;;3.02;100.00;103738.38;4871922;29;20036;-65
2022/01/18 01:54:38;;;;;;;16.80;3.83;;;;;;;3.03;100.00;103750.63;4893913;29;20411;-65
2022/01/18 01:57:04;;;;;;;18.17;3.40;;;;;;;3.03;100.00;103744.50;4893276;29;20044;-66
2022/01/18 01:59:30;;;;;;;15.57;4.03;;;;;;;3.02;100.00;103748.84;4874462;29;20744;-67
2022/01/18 02:01:55;;;;;;;20.77;4.03;;;;;;;3.01;100.00;103747.09;4893401;29;20040;-65
2022/01/18 02:04:21;;;;;;;21.50;4.32;;;;;;;2.99;100.00;103752.25;4893457;29;20040;-66
2022/01/18 02:06:46;;;;;;;16.70;3.00;;;;;;;2.97;100.00;103746.09;4871266;29;20028;-66
2022/01/18 02:09:12;;;;;;;11.80;3.38;;;;;;;2.96;100.00;103748.66;4893901;29;20046;-64
2022/01/18 02:11:38;;;;;;;12.48;3.00;;;;;;;2.95;100.00;103747.75;4893930;29;20044;-65
2022/01/18 02:14:06;;;;;;;8.88;2.70;;;;;;;2.93;100.00;103749.44;4877623;29;20513;-65
2022/01/18 02:22:03;;;;;;;18.80;3.75;;;;;;;2.88;100.00;103737.03;4892024;29;20036;-65
2022/01/18 02:24:29;;;;;;;17.05;3.33;;;;;;;2.86;100.00;103723.91;4894310;29;20103;-65
2022/01/18 02:26:54;;;;;;;23.23;3.17;;;;;;;2.85;100.00;103728.22;4896124;29;20040;-65
2022/01/18 02:29:20;;;;;;;22.88;3.72;;;;;;;2.86;100.00;103726.53;4896984;29;21457;-65
2022/01/18 02:31:46;;;;;;;18.58;3.30;;;;;;;2.87;100.00;103724.81;4875131;29;21711;-66
2022/01/18 02:34:15;;;;;;;15.70;3.00;;;;;;;2.88;100.00;103731.81;4896998;29;20033;-67
2022/01/18 02:36:41;;;;;;;15.45;3.40;;;;;;;2.88;100.00;103731.81;4895854;29;20209;-64
2022/01/18 02:39:08;;;;;;;21.80;4.10;;;;;;;2.90;100.00;103732.75;4896719;29;20178;-65
2022/01/18 02:41:34;;;;;;;23.20;4.15;;;;;;;2.90;100.00;103732.75;4894917;29;20031;-65
2022/01/18 02:44:05;;;;;;;18.00;3.97;;;;;;;2.92;100.00;103720.59;4896902;29;20444;-65
2022/01/18 02:46:31;;;;;;;18.77;3.58;;;;;;;2.93;100.00;103732.84;4875146;29;20128;-65
2022/01/18 02:48:58;;;;;;;19.23;4.00;;;;;;;2.93;100.00;103725.88;4896144;29;20036;-66
2022/01/18 02:51:24;;;;;;;22.83;4.10;;;;;;;2.94;100.00;103725.03;4896746;29;20036;-66
2022/01/18 02:54:00;;;;;;;20.90;4.25;;;;;;;2.95;100.00;103736.41;4895918;29;20043;-66
2022/01/18 02:56:27;;;;;;;26.15;5.22;;;;;;;2.96;100.00;103730.34;4895625;29;20036;-65
2022/01/18 02:59:00;;;;;;;22.17;4.50;;;;;;;2.98;100.00;103732.16;4896182;29;20032;-66
2022/01/18 03:04:10;;;;;;;23.35;5.88;;;;;;;3.02;100.00;103734.88;4871671;29;20410;-65
2022/01/18 03:06:35;;;;;;;31.10;5.43;;;;;;;3.02;100.00;103738.38;4895500;29;20031;-65
2022/01/18 03:09:01;;;;;;;26.88;5.70;;;;;;;3.04;100.00;103741.06;4895883;29;20359;-66
2022/01/18 03:11:26;;;;;;;18.90;4.30;;;;;;;3.05;100.00;103738.47;4896170;29;20111;-65
2022/01/18 03:13:52;;;;;;;21.85;4.63;;;;;;;3.07;100.00;103742.06;4896036;29;20429;-66
2022/01/18 03:16:17;;;;;;;21.30;4.20;;;;;;;3.09;100.00;103742.97;4882039;29;20111;-65
2022/01/18 03:18:43;;;;;;;17.08;3.92;;;;;;;3.12;100.00;103745.69;4896395;29;20036;-64
2022/01/18 03:21:10;;;;;;;16.40;3.13;;;;;;;3.16;100.00;103756.28;4895657;29;20039;-65
2022/01/18 03:23:35;;;;;;;16.15;3.03;;;;;;;3.18;100.00;103749.34;4895483;29;20152;-65
2022/01/18 03:26:02;;;;;;;16.65;3.53;;;;;;;3.21;100.00;103754.72;4895469;29;20059;-66
2022/01/18 03:28:28;;;;;;;19.38;3.42;;;;;;;3.23;100.00;103763.50;4895339;29;20032;-66
2022/01/18 03:30:57;;;;;;;19.33;3.35;;;;;;;3.25;100.00;103767.03;4895345;29;20038;-66
2022/01/18 03:33:24;;;;;;;13.20;3.72;;;;;;;3.28;100.00;103767.16;4871268;29;20059;-65
2022/01/18 03:35:53;;;;;;;28.10;4.22;;;;;;;3.30;100.00;103767.19;4895770;29;20036;-65
2022/01/18 03:38:20;;;;;;;17.42;3.88;;;;;;;3.32;100.00;103774.25;4894848;29;20632;-66
2022/01/18 03:40:46;;;;;;;24.30;3.85;;;;;;;3.35;100.00;103784.84;4895036;29;20047;-65
2022/01/18 03:43:13;;;;;;;26.00;3.72;;;;;;;3.38;100.00;103784.91;4892559;29;20040;-65
2022/01/18 03:45:43;;;;;;;25.75;3.60;;;;;;;3.41;100.00;103778.91;4879374;29;20119;-64
2022/01/18 03:48:17;;;;;;;17.08;3.28;;;;;;;3.44;100.00;103779.00;4871744;29;20710;-64
2022/01/18 03:50:43;;;;;;;28.83;3.75;;;;;;;3.48;100.00;103783.50;4895047;29;20562;-65
2022/01/18 03:53:10;;;;;;;25.30;3.85;;;;;;;3.50;100.00;103773.94;4879754;29;20062;-66
2022/01/18 03:55:36;;;;;;;19.80;3.40;;;;;;;3.56;100.00;103777.59;4894205;29;20353;-65
2022/01/18 03:58:01;;;;;;;24.38;3.95;;;;;;;3.59;100.00;103777.72;4877906;29;20133;-65
2022/01/18 04:00:27;;;;;;;23.27;4.95;;;;;;;3.60;100.00;103777.72;4895349;29;20178;-65
2022/01/18 04:02:53;;;;;;;24.83;3.72;;;;;;;3.63;100.00;103761.22;4895342;29;20047;-64
2022/01/18 04:05:19;;;;;;;27.58;4.13;;;;;;;3.65;100.00;103770.03;4894450;29;20036;-65
2022/01/18 04:07:46;;;;;;;26.73;4.32;;;;;;;3.68;100.00;103762.25;4895085;29;20381;-65
2022/01/18 04:10:13;;;;;;;23.13;4.40;;;;;;;3.71;100.00;103766.72;4878525;29;20069;-65
2022/01/18 04:12:39;;;;;;;26.27;3.85;;;;;;;3.72;100.00;103768.47;4895275;29;20052;-65
2022/01/18 04:15:08;;;;;;;20.55;3.28;;;;;;;3.74;100.00;103766.78;4877724;29;20108;-65
2022/01/18 04:30:57;;;;;;;19.48;3.78;;;;;;;3.85;100.00;103775.88;4894285;29;20035;-65
2022/01/18 04:33:22;;;;;;;25.05;3.92;;;;;;;3.87;100.00;103768.06;4878322;29;20040;-66
2022/01/18 04:35:48;;;;;;;23.55;4.25;;;;;;;3.88;100.00;103770.69;4894000;29;21527;-66
2022/01/18 04:38:14;;;;;;;24.27;4.20;;;;;;;3.90;100.00;103766.41;4893505;29;20378;-65
2022/01/18 04:40:43;;;;;;;25.60;5.13;;;;;;;3.91;100.00;103776.06;4894335;29;20032;-65
2022/01/18 04:43:37;;;;;;;17.30;3.70;;;;;;;3.93;100.00;103769.13;4894690;29;20075;-66
2022/01/18 04:48:46;;;;;;;21.63;4.20;;;;;;;3.99;100.00;103762.28;4894380;29;20472;-65
2022/01/18 04:51:12;;;;;;;30.50;5.20;;;;;;;4.03;100.00;103753.66;4893638;29;20043;-66
2022/01/18 04:53:52;;;;;;;21.83;5.07;;;;;;;4.04;100.00;103763.31;4894094;29;20048;-64
2022/01/18 04:56:28;;;;;;;19.30;5.38;;;;;;;4.06;100.00;103772.09;4893548;29;20155;-64
2022/01/18 04:58:55;;;;;;;26.33;4.82;;;;;;;4.06;100.00;103786.13;4894656;29;20040;-64
2022/01/18 05:01:20;;;;;;;19.90;4.65;;;;;;;4.08;100.00;103773.94;4894210;29;20040;-65
2022/01/18 05:03:46;;;;;;;24.30;4.03;;;;;;;4.11;100.00;103783.63;4871231;29;20044;-64
2022/01/18 05:06:15;;;;;;;26.02;4.03;;;;;;;4.13;100.00;103778.44;4873413;29;20131;-65
2022/01/18 05:08:41;;;;;;;25.92;4.70;;;;;;;4.14;100.00;103778.44;4892241;29;20125;-65
2022/01/18 05:11:12;;;;;;;17.98;3.78;;;;;;;4.17;100.00;103780.28;4893890;29;20059;-65
2022/01/18 05:16:41;;;;;;;19.10;4.40;;;;;;;4.18;100.00;103775.06;4894149;29;20092;-66
2022/01/18 05:24:27;;;;;;;25.10;4.90;;;;;;;4.23;100.00;103763.84;4851454;29;20154;-66
2022/01/18 05:26:54;;;;;;;22.60;4.53;;;;;;;4.24;100.00;103769.09;4893148;29;20055;-66
2022/01/18 05:29:20;;;;;;;24.48;4.20;;;;;;;4.25;100.00;103781.38;4877593;29;20542;-65
2022/01/18 05:31:46;;;;;;;25.15;5.18;;;;;;;4.26;100.00;103772.69;4891994;29;20036;-66
2022/01/18 05:34:12;;;;;;;22.70;4.95;;;;;;;4.28;100.00;103770.09;4878281;29;20453;-66
2022/01/18 05:36:38;;;;;;;22.42;4.68;;;;;;;4.28;100.00;103770.97;4893056;29;20032;-65
2022/01/18 05:39:04;;;;;;;19.13;4.43;;;;;;;4.31;100.00;103775.44;4871036;29;20086;-65
2022/01/18 05:41:30;;;;;;;17.65;4.47;;;;;;;4.32;100.00;103769.34;4892747;29;20530;-65
2022/01/18 05:43:55;;;;;;;20.58;4.75;;;;;;;4.34;100.00;103770.25;4893614;29;21684;-66
2022/01/18 05:46:21;;;;;;;20.35;4.95;;;;;;;4.34;100.00;103773.78;4893542;29;20174;-66
2022/01/18 05:48:46;;;;;;;20.73;4.65;;;;;;;4.36;100.00;103773.81;4893598;29;20150;-66
2022/01/18 05:51:12;;;;;;;19.45;4.05;;;;;;;4.37;100.00;103764.22;4896374;29;20064;-65
2022/01/18 05:53:39;;;;;;;24.67;4.88;;;;;;;4.38;100.00;103773.84;4897389;29;20040;-66
2022/01/18 05:56:08;;;;;;;22.73;4.97;;;;;;;4.38;100.00;103766.88;4896802;29;20523;-66
2022/01/18 05:58:33;;;;;;;30.20;6.15;;;;;;;4.39;100.00;103771.28;4897713;29;20123;-66
2022/01/18 06:00:59;;;;;;;22.88;4.80;;;;;;;4.41;100.00;103769.56;4897405;29;20032;-66
2022/01/18 06:03:37;;;;;;;22.98;5.13;;;;;;;4.42;100.00;103775.72;4897410;29;20044;-66
2022/01/18 06:08:47;;;;;;;23.67;4.50;;;;;;;4.43;100.00;103774.88;4897255;29;20162;-65
2022/01/18 06:11:13;;;;;;;26.75;5.47;;;;;;;4.42;100.00;103776.59;4896970;29;20561;-65
2022/01/18 06:13:38;;;;;;;22.55;4.70;;;;;;;4.44;100.00;103781.91;4897008;29;20051;-64
2022/01/18 06:16:04;;;;;;;17.45;4.65;;;;;;;4.43;100.00;103786.28;4897419;29;20068;-64
2022/01/18 06:18:30;;;;;;;23.65;5.13;;;;;;;4.45;100.00;103783.66;4879972;29;20032;-65
2022/01/18 06:20:55;;;;;;;23.20;6.65;;;;;;;4.44;100.00;103788.03;4897137;29;20503;-64
2022/01/18 06:23:21;;;;;;;26.50;7.82;;;;;;;4.45;100.00;103784.56;4896229;29;20787;-65
2022/01/18 06:25:47;;;;;;;26.75;7.85;;;;;;;4.45;100.00;103787.19;4896997;29;20372;-66
2022/01/18 06:28:13;;;;;;;25.95;6.90;;;;;;;4.45;100.00;103779.31;4897103;29;20064;-65
2022/01/18 06:30:39;;;;;;;22.35;6.57;;;;;;;4.45;100.00;103781.94;4896548;29;20051;-64
2022/01/18 06:33:04;;;;;;;25.38;7.43;;;;;;;4.47;100.00;103774.13;4877078;29;20040;-64
2022/01/18 06:35:30;;;;;;;24.23;6.28;;;;;;;4.48;100.00;103781.16;4896338;29;21509;-66
2022/01/18 06:37:55;;;;;;;20.45;5.00;;;;;;;4.49;100.00;103782.91;4896614;29;20036;-64
2022/01/18 06:40:21;;;;;;;22.13;4.80;;;;;;;4.49;100.00;103786.41;4859965;29;20103;-65
2022/01/18 06:42:47;;;;;;;20.85;4.88;;;;;;;4.51;100.00;103773.34;4896790;29;20031;-66
2022/01/18 06:45:12;;;;;;;22.75;5.32;;;;;;;4.52;100.00;103776.88;4889304;29;20032;-65
2022/01/18 06:47:39;;;;;;;24.65;5.43;;;;;;;4.52;100.00;103775.13;4896483;29;20068;-66
2022/01/18 06:50:06;;;;;;;19.42;6.65;;;;;;;4.54;100.00;103765.56;4896436;29;20047;-65
2022/01/18 06:52:31;;;;;;;19.48;5.05;;;;;;;4.55;100.00;103769.97;4873643;29;20056;-65
2022/01/18 06:54:57;;;;;;;27.92;8.25;;;;;;;4.57;100.00;103767.38;4896573;29;20424;-65
2022/01/18 06:57:23;;;;;;;25.90;9.32;;;;;;;4.58;100.00;103774.41;4896037;29;20032;-65
2022/01/18 06:59:48;;;;;;;19.23;6.80;;;;;;;4.58;100.00;103780.53;4895654;29;20052;-66
2022/01/18 07:02:14;;;;;;;25.92;5.22;;;;;;;4.61;100.00;103787.59;4896159;29;20041;-66
2022/01/18 07:04:40;;;;;;;23.67;5.43;;;;;;;4.62;100.00;103792.00;4896407;29;20059;-66
2022/01/18 07:07:06;;;;;;;22.90;5.50;;;;;;;4.62;100.00;103787.66;4895933;29;20035;-65
2022/01/18 07:09:32;;;;;;;22.42;5.80;;;;;;;4.63;100.00;103785.91;4879429;29;20134;-65
2022/01/18 07:11:59;;;;;;;23.10;5.65;;;;;;;4.63;100.00;103778.03;4878265;29;20136;-65
2022/01/18 07:14:25;;;;;;;22.38;5.30;;;;;;;4.65;100.00;103786.84;4896238;29;20522;-65
2022/01/18 07:16:50;;;;;;;18.60;5.13;;;;;;;4.66;100.00;103786.00;4895451;29;20115;-66
2022/01/18 07:19:16;;;;;;;19.73;5.05;;;;;;;4.66;100.00;103790.34;4896102;29;20028;-66
2022/01/18 07:21:42;;;;;;;20.33;5.40;;;;;;;4.67;100.00;103793.00;4880136;29;20060;-65
2022/01/18 07:24:25;;;;;;;19.45;5.95;;;;;;;4.67;100.00;103789.50;4877628;29;20131;-66
2022/01/18 07:26:50;;;;;;;19.55;5.50;;;;;;;4.67;100.00;103790.38;4896031;29;20044;-65
2022/01/18 07:29:16;;;;;;;24.75;5.97;;;;;;;4.68;100.00;103802.66;4896018;29;20036;-66
2022/01/18 07:31:42;;;;;;;20.52;5.95;;;;;;;4.69;100.00;103798.31;4895265;29;20047;-65
2022/01/18 07:34:07;;;;;;;23.20;6.10;;;;;;;4.69;100.00;103804.44;4896046;29;21893;-65
2022/01/18 07:36:33;;;;;;;26.73;6.65;;;;;;;4.69;100.00;103803.56;4877532;29;20499;-65
2022/01/18 07:38:58;;;;;;;18.85;5.70;;;;;;;4.70;100.00;103800.09;4880304;29;20139;-65
2022/01/18 07:41:24;;;;;;;21.75;5.88;;;;;;;4.70;100.00;103808.88;4895020;29;20036;-65
2022/01/18 07:43:49;;;;;;;20.52;5.63;;;;;;;4.70;100.00;103801.00;4895343;29;20068;-65
2022/01/18 07:46:15;;;;;;;17.83;5.85;;;;;;;4.71;100.00;103802.75;4895325;29;20175;-65
2022/01/18 07:48:40;;;;;;;18.63;5.60;;;;;;;4.71;100.00;103810.63;4895420;29;20499;-65
2022/01/18 07:51:06;;;;;;;22.98;7.13;;;;;;;4.71;100.00;103802.75;4895323;29;20043;-64
2022/01/18 07:53:32;;;;;;;19.17;6.57;;;;;;;4.73;100.00;103814.19;4896241;29;20657;-64
2022/01/18 07:55:57;;;;;;;16.55;5.78;;;;;;;4.73;100.00;103808.94;4878559;29;20064;-65
2022/01/18 07:58:23;;;;;;;24.77;6.72;;;;;;;4.74;100.00;103809.84;4895773;29;20040;-65
2022/01/18 08:00:48;;;;;;;18.67;6.13;;;;;;;4.75;100.00;103807.22;4895470;29;20148;-65
2022/01/18 08:03:14;;;;;;;15.52;6.05;;;;;;;4.76;100.00;103810.75;4896403;29;20036;-65
2022/01/18 08:05:40;;;;;;;19.33;6.15;;;;;;;4.77;100.00;103812.53;4895441;29;20480;-65
2022/01/18 08:08:06;;;;;;;16.83;5.57;;;;;;;4.79;100.00;103817.81;4895581;29;20024;-65
2022/01/18 08:10:32;;;;;;;16.60;5.07;;;;;;;4.79;100.00;103816.06;4894641;29;20052;-65
2022/01/18 08:13:02;;;;;;;19.58;5.50;;;;;;;4.80;100.00;103816.97;4894849;29;20498;-65
2022/01/18 08:15:37;;;;;;;12.90;5.22;;;;;;;4.80;100.00;103815.22;4894483;29;20054;-65
2022/01/18 08:18:04;;;;;;;12.13;4.40;;;;;;;4.83;100.00;103820.56;4895134;29;20040;-65
2022/01/18 08:20:29;;;;;;;10.65;3.78;;;;;;;4.84;100.00;103813.56;4894892;29;20400;-65
2022/01/18 08:22:55;;;;;;;13.32;4.20;;;;;;;4.83;100.00;103803.91;4894630;29;20072;-65
2022/01/18 08:25:23;;;;;;;13.00;4.65;;;;;;;4.84;100.00;103817.09;4894443;29;20488;-65
2022/01/18 08:27:48;;;;;;;20.20;5.20;;;;;;;4.85;100.00;103813.59;4894491;29;20032;-65
2022/01/18 08:30:17;;;;;;;12.48;5.10;;;;;;;4.86;100.00;103819.75;4876663;29;20040;-65
2022/01/18 08:32:43;;;;;;;17.20;5.13;;;;;;;4.87;100.00;103811.03;4875425;29;20124;-65
2022/01/18 08:35:09;;;;;;;14.25;5.25;;;;;;;4.88;100.00;103811.09;4894710;29;20063;-65
2022/01/18 08:37:34;;;;;;;12.68;4.57;;;;;;;4.88;100.00;103805.81;4894598;29;20036;-66
2022/01/18 08:40:00;;;;;;;13.48;4.13;;;;;;;4.89;100.00;103809.31;4893850;29;20044;-66
2022/01/18 08:42:26;;;;;;;13.05;3.95;;;;;;;4.89;100.00;103809.31;4894500;29;20483;-66
2022/01/18 08:44:51;;;;;;;9.88;4.35;;;;;;;4.89;100.00;103819.81;4894685;29;20042;-66
2022/01/18 08:47:18;;;;;;;9.60;3.75;;;;;;;4.89;100.00;103815.47;4894115;29;20407;-66
2022/01/18 08:49:44;;;;;;;11.70;3.53;;;;;;;4.91;100.00;103820.78;4894408;29;20669;-66
2022/01/18 08:52:09;;;;;;;9.05;3.17;;;;;;;4.91;100.00;103815.53;4894304;29;20127;-66
2022/01/18 08:54:35;;;;;;;9.05;3.38;;;;;;;4.92;100.00;103830.44;4894787;29;20042;-66
2022/01/18 08:57:01;;;;;;;9.52;3.25;;;;;;;4.94;100.00;103818.22;4894049;29;20028;-65
2022/01/18 08:59:28;;;;;;;5.47;2.58;;;;;;;4.95;100.00;103821.75;4894758;29;20073;-66
2022/01/18 09:01:54;;;;;;;7.22;3.22;;;;;;;4.95;100.00;103832.25;4894149;29;20036;-66
2022/01/18 09:04:20;;;;;;;5.43;2.70;;;;;;;4.95;100.00;103827.00;4893907;29;20682;-65
2022/01/18 09:06:48;;;;;;;9.27;3.08;;;;;;;4.96;100.00;103831.41;4883622;29;20075;-71
2022/01/18 09:09:16;;;;;;;11.02;4.03;;;;;;;4.96;100.00;103832.25;4880024;29;20138;-71
2022/01/18 09:11:42;;;;;;;11.73;3.65;;;;;;;4.98;100.00;103822.72;4893216;29;20119;-65
2022/01/18 09:14:07;;;;;;;7.90;3.17;;;;;;;5.00;100.00;103821.00;4894136;29;20554;-65
2022/01/18 09:16:33;;;;;;;8.93;3.35;;;;;;;5.03;100.00;103828.94;4893778;29;20044;-65
2022/01/18 09:18:58;;;;;;;7.70;3.97;;;;;;;5.06;100.00;103825.50;4894439;29;20028;-65
2022/01/18 09:21:26;;;;;;;9.73;3.10;;;;;;;5.07;100.00;103822.03;4892859;29;20403;-65
2022/01/18 09:23:52;;;;;;;10.57;3.90;;;;;;;5.08;100.00;103812.44;4893689;29;20757;-66
2022/01/18 09:26:18;;;;;;;10.65;4.03;;;;;;;5.08;100.00;103815.97;4888236;29;20060;-66
2022/01/18 09:28:46;;;;;;;7.15;4.03;;;;;;;5.09;100.00;103815.09;4891232;29;20138;-66
2022/01/18 09:31:12;;;;;;;11.00;4.28;;;;;;;5.10;100.00;103819.50;4890522;29;20044;-66
2022/01/18 09:33:37;;;;;;;10.77;5.03;;;;;;;5.12;100.00;103819.56;4890342;29;20063;-66
2022/01/18 09:36:03;;;;;;;7.45;3.63;;;;;;;5.11;100.00;103821.28;4888544;29;20046;-66
2022/01/18 09:38:29;;;;;;;8.40;3.85;;;;;;;5.14;100.00;103829.22;4886575;29;20578;-65
2022/01/18 09:40:56;;;;;;;7.45;3.22;;;;;;;5.15;100.00;103827.50;4875580;29;20040;-66
2022/01/18 09:43:22;;;;;;;7.85;3.70;;;;;;;5.14;100.00;103834.47;4886762;29;20719;-66
2022/01/18 09:45:48;;;;;;;9.38;4.15;;;;;;;5.14;100.00;103829.22;4889494;29;20115;-64
2022/01/18 09:48:14;;;;;;;10.32;4.13;;;;;;;5.15;100.00;103830.13;4890624;29;20114;-65
2022/01/18 09:50:42;;;;;;;10.85;4.90;;;;;;;5.16;100.00;103830.16;4869308;29;20087;-65
2022/01/18 09:53:09;;;;;;;9.32;4.63;;;;;;;5.18;100.00;103832.84;4890610;29;20119;-65
2022/01/18 09:55:35;;;;;;;13.10;4.57;;;;;;;5.20;100.00;103832.84;4889664;29;20048;-65
2022/01/18 09:58:04;;;;;;;14.50;5.60;;;;;;;5.22;100.00;103836.44;4888137;29;20032;-64
2022/01/18 10:00:32;;;;;;;14.57;5.00;;;;;;;5.22;100.00;103834.69;4882627;29;20037;-64
2022/01/18 10:02:58;;;;;;;12.18;5.03;;;;;;;5.25;100.00;103847.00;4881723;29;20191;-65
2022/01/18 10:05:27;;;;;;;15.90;5.40;;;;;;;5.26;100.00;103839.16;4889347;29;20149;-65
2022/01/18 10:08:02;;;;;;;14.88;6.05;;;;;;;5.29;100.00;103843.63;4889186;29;20462;-65
2022/01/18 10:10:43;;;;;;;16.50;5.97;;;;;;;5.29;100.00;103841.84;4889431;29;20096;-66
2022/01/18 10:13:15;;;;;;;16.40;5.53;;;;;;;5.30;100.00;103841.00;4888539;29;20044;-66
2022/01/18 10:16:23;;;;;;;12.20;5.38;;;;;;;5.32;100.00;103848.06;4871129;29;20044;-66
2022/01/18 10:18:50;;;;;;;13.10;4.80;;;;;;;5.33;100.00;103842.81;4880901;29;20155;-66
2022/01/18 10:21:33;;;;;;;19.08;5.43;;;;;;;5.34;100.00;103841.97;4875884;29;20087;-65
2022/01/18 10:24:15;;;;;;;15.15;5.00;;;;;;;5.37;100.00;103835.91;4879324;29;20111;-65
2022/01/18 10:26:42;;;;;;;21.00;6.80;;;;;;;5.39;100.00;103836.84;4879676;29;20068;-65
2022/01/18 10:29:09;;;;;;;19.52;6.53;;;;;;;5.40;100.00;103843.88;4882013;29;20747;-65
2022/01/18 10:31:57;;;;;;;17.77;6.68;;;;;;;5.39;100.00;103839.47;4887337;29;20032;-66
2022/01/18 10:37:04;;;;;;;17.15;6.13;;;;;;;5.40;100.00;103831.59;4888517;29;20044;-65
2022/01/18 10:39:33;;;;;;;14.70;6.43;;;;;;;5.39;100.00;103835.09;4892877;29;20040;-65
2022/01/18 10:41:59;;;;;;;20.55;7.57;;;;;;;5.39;100.00;103835.09;4890715;29;20032;-66
2022/01/18 10:44:25;;;;;;;19.15;7.50;;;;;;;5.40;100.00;103836.00;4892694;29;20157;-63
2022/01/18 10:46:57;;;;;;;19.88;7.40;;;;;;;5.40;100.00;103831.59;4891272;29;20506;-64
2022/01/18 10:49:40;;;;;;;13.60;5.85;;;;;;;5.40;100.00;103821.09;4893774;29;20075;-64
2022/01/18 10:52:14;;;;;;;14.23;5.47;;;;;;;5.42;100.00;103829.03;4891087;29;20046;-65
2022/01/18 10:54:57;;;;;;;13.90;5.80;;;;;;;5.43;100.00;103825.53;4891842;29;20138;-65
2022/01/18 10:57:36;;;;;;;12.50;5.05;;;;;;;5.44;100.00;103827.31;4891780;29;20159;-66
2022/01/18 11:00:22;;;;;;;13.75;4.80;;;;;;;5.46;100.00;103819.47;4891071;29;20794;-64
2022/01/18 11:02:52;;;;;;;15.02;5.32;;;;;;;5.43;100.00;103821.19;4892193;29;20048;-64
2022/01/18 11:05:26;;;;;;;11.85;5.10;;;;;;;5.45;100.00;103813.31;4891814;29;20636;-64
2022/01/18 11:07:54;;;;;;;13.70;5.10;;;;;;;5.48;100.00;103808.16;4891527;29;20045;-64
2022/01/18 11:10:42;;;;;;;11.68;5.10;;;;;;;5.50;100.00;103805.56;4892858;29;20099;-64
2022/01/18 11:13:11;;;;;;;14.20;6.47;;;;;;;5.52;100.00;103811.75;4892944;29;20154;-64
2022/01/18 11:15:40;;;;;;;14.00;5.32;;;;;;;5.51;100.00;103816.09;4892079;29;20258;-64
2022/01/18 11:18:15;;;;;;;12.93;5.15;;;;;;;5.52;100.00;103810.00;4890487;29;20032;-64
2022/01/18 11:20:45;;;;;;;9.40;4.60;;;;;;;5.54;100.00;103813.56;4891645;29;20040;-64
2022/01/18 11:23:10;;;;;;;9.23;4.10;;;;;;;5.56;100.00;103817.09;4887535;29;20036;-64
2022/01/18 11:25:37;;;;;;;10.57;4.90;;;;;;;5.55;100.00;103809.16;4872320;29;20090;-64
2022/01/18 11:28:04;;;;;;;13.73;4.70;;;;;;;5.53;100.00;103822.28;4891722;29;20480;-65
2022/01/18 11:30:32;;;;;;;8.80;4.28;;;;;;;5.52;100.00;103814.38;4890799;29;20040;-65
2022/01/18 11:33:00;;;;;;;8.65;4.45;;;;;;;5.52;100.00;103819.63;4883906;29;20036;-66
2022/01/18 11:36:03;;;;;;;10.75;4.38;;;;;;;5.52;100.00;103820.53;4890407;29;20321;-66
2022/01/18 11:38:35;;;;;;;9.85;4.57;;;;;;;5.50;100.00;103816.94;4891007;29;20095;-66
2022/01/18 11:41:05;;;;;;;9.57;4.32;;;;;;;5.48;100.00;103810.78;4892892;29;20047;-66
2022/01/18 11:43:33;;;;;;;11.88;5.00;;;;;;;5.50;100.00;103819.59;4891961;29;20451;-66
2022/01/18 11:45:59;;;;;;;11.73;5.30;;;;;;;5.49;100.00;103820.44;4892546;29;20043;-66
2022/01/18 11:48:25;;;;;;;12.30;5.72;;;;;;;5.49;100.00;103820.44;4891686;29;20032;-66
2022/01/18 11:51:02;;;;;;;12.32;6.28;;;;;;;5.48;100.00;103820.38;4891151;29;20040;-66
2022/01/18 11:53:46;;;;;;;14.40;6.25;;;;;;;5.49;100.00;103822.19;4874257;29;20268;-64
2022/01/18 11:56:15;;;;;;;14.52;6.18;;;;;;;5.49;100.00;103823.06;4885676;29;20125;-64
2022/01/18 11:58:43;;;;;;;15.35;6.20;;;;;;;5.50;100.00;103819.59;4891743;29;20537;-64
2022/01/18 12:01:10;;;;;;;16.27;6.20;;;;;;;5.53;100.00;103818.78;4874262;29;20046;-64
2022/01/18 12:03:44;;;;;;;14.65;6.28;;;;;;;5.54;100.00;103813.56;4891528;29;20039;-64
2022/01/18 12:06:09;;;;;;;16.58;6.57;;;;;;;5.55;100.00;103833.72;4891566;29;20114;-66
2022/01/18 12:08:40;;;;;;;14.52;6.43;;;;;;;5.56;100.00;103817.09;4891808;29;20032;-66
2022/01/18 12:11:13;;;;;;;14.60;5.82;;;;;;;5.57;100.00;103818.00;4891051;29;20047;-65
2022/01/18 12:13:41;;;;;;;15.20;6.50;;;;;;;5.58;100.00;103819.78;4884949;29;20095;-65
2022/01/18 12:16:17;;;;;;;14.77;6.82;;;;;;;5.60;100.00;103823.31;4890250;29;20032;-65
2022/01/18 12:18:55;;;;;;;16.90;6.68;;;;;;;5.62;100.00;103811.09;4891162;29;20044;-65
2022/01/18 12:21:26;;;;;;;17.65;6.57;;;;;;;5.61;100.00;103816.34;4889419;29;20154;-66
2022/01/18 12:23:52;;;;;;;21.33;7.10;;;;;;;5.64;100.00;103811.13;4887342;29;20066;-67
2022/01/18 12:26:31;;;;;;;17.25;7.13;;;;;;;5.62;100.00;103811.09;4890681;29;20055;-67
2022/01/18 12:34:28;;;;;;;16.77;7.57;;;;;;;5.63;100.00;103798.84;4891663;29;20048;-67
2022/01/18 12:37:07;;;;;;;21.27;8.00;;;;;;;5.61;100.00;103798.78;4889023;29;20127;-67
2022/01/18 12:45:24;;;;;;;15.65;6.85;;;;;;;5.63;100.00;103796.22;4890211;29;20899;-68
2022/01/18 12:47:58;;;;;;;15.43;6.80;;;;;;;5.62;100.00;103800.56;4884825;29;20043;-66